Weather at Al Sila Hospital Heliport

Public forecast

Using degrees Celsius for public forecast. Weather courtesy of forecast.io.

Closest aviation weather report (METAR) to Al Sila Hospital Heliport

Closest report is Al Udeid Air Base, 68.9 nm (127.5 km) NNW.

2024/05/19 08:55 (retrieved 7 minutes ago)

OTBH 190855Z 34024G31KT 9000 HZ FEW130 SCT170 SCT200 38/03 A2970 Q1005 RMK AO2A PK WND 36031/44 SLP058 T03810025 58010 FZRANO

Closest aviation forecast (TAF) to Al Sila Hospital Heliport

Closest forecast is Al Udeid Air Base, 68.9 nm (127.5 km) NNW.

2024/05/19 08:06 (retrieved 56 minutes ago)

TAF TAF OTBH 190800Z 1908/2014 34020G30KT 9000 BLDU FEW140 QNH2964INS BECMG 1914/1915 34010G20KT 9000 BLDU SKC QNH2965INS BECMG 1916/1917 30009KT 9999 NSW SKC QNH2963INS BECMG 2006/2007 33012G18KT 9999 SKC QNH2965INS TX40/1912Z TN27/2002Z